Time;durP1;ratioP1;P1;durP2;ratioP2;P2;SDS_P1;SDS_P2;PMS_P1;PMS_P2;Temp;Humidity;BMP_temperature;BMP_pressure;BME280_temperature;BME280_humidity;BME280_pressure;Samples;Min_cycle;Max_cycle;Signal;HPM_P1;HPM_P2
2023/12/22 15:43:33;;;;;;;16.93;10.53;;;;;;;1.24;100.00;96824.09;5051380;27;1450463;-66
2023/12/22 15:46:05;;;;;;;21.50;11.57;;;;;;;1.49;100.00;96841.34;5034491;28;20039;-67
2023/12/22 15:48:32;;;;;;;26.17;13.30;;;;;;;1.65;100.00;96828.16;5031092;28;20127;-68
2023/12/22 15:50:58;;;;;;;22.43;11.47;;;;;;;1.83;100.00;96839.19;5048669;28;20047;-68
2023/12/22 15:53:23;;;;;;;23.57;13.57;;;;;;;1.86;100.00;96828.38;5032743;28;20872;-69
2023/12/22 15:55:50;;;;;;;21.00;10.97;;;;;;;2.06;100.00;96815.69;4992074;28;20877;-68
2023/12/22 15:58:17;;;;;;;21.87;11.87;;;;;;;2.22;100.00;96813.75;4991147;28;21018;-70
2023/12/22 16:00:43;;;;;;;25.00;14.57;;;;;;;2.31;100.00;96815.31;4992595;28;20048;-69
2023/12/22 16:03:10;;;;;;;24.30;13.97;;;;;;;2.34;100.00;96812.34;4994649;28;20493;-70
2023/12/22 16:05:42;;;;;;;25.67;13.13;;;;;;;2.39;100.00;96796.94;4993014;28;20966;-68
2023/12/22 16:08:08;;;;;;;28.63;16.50;;;;;;;2.31;100.00;96797.00;4990587;28;20043;-68
2023/12/22 16:10:34;;;;;;;30.67;16.27;;;;;;;2.25;100.00;96808.16;4978812;28;21211;-68
2023/12/22 16:13:03;;;;;;;30.00;17.40;;;;;;;2.21;100.00;96795.59;4992585;28;20042;-70
2023/12/22 16:15:34;;;;;;;32.88;15.63;;;;;;;2.28;100.00;96799.97;4993621;28;20044;-70
2023/12/22 16:18:04;;;;;;;29.58;16.30;;;;;;;2.28;100.00;96792.13;4978044;28;20048;-72
2023/12/22 16:20:41;;;;;;;30.23;16.47;;;;;;;2.29;100.00;96792.94;5024193;28;20176;-69
2023/12/22 16:23:07;;;;;;;32.77;17.50;;;;;;;2.23;100.00;96797.06;5006494;28;20041;-68
2023/12/22 16:25:33;;;;;;;37.57;18.13;;;;;;;2.24;100.00;96779.56;4991096;28;20094;-68
2023/12/22 16:27:59;;;;;;;33.33;17.63;;;;;;;2.18;100.00;96794.16;5022291;28;20669;-69
2023/12/22 16:30:25;;;;;;;32.93;17.87;;;;;;;2.16;100.00;96816.25;4971314;28;20053;-69
2023/12/22 16:32:51;;;;;;;32.43;16.80;;;;;;;2.18;100.00;96791.53;4929535;28;20072;-72
2023/12/22 16:35:16;;;;;;;30.13;15.60;;;;;;;2.07;100.00;96794.56;4927987;28;20042;-69
2023/12/22 16:37:48;;;;;;;26.03;14.83;;;;;;;2.19;100.00;96780.06;4919797;28;20047;-73
2023/12/22 16:40:17;;;;;;;26.23;14.97;;;;;;;2.11;100.00;96780.13;4943978;28;20059;-74
2023/12/22 16:42:45;;;;;;;30.93;15.80;;;;;;;2.09;100.00;96803.03;4927387;28;20556;-72
2023/12/22 16:45:11;;;;;;;28.77;14.80;;;;;;;2.15;100.00;96796.31;4905180;28;20053;-69
2023/12/22 16:47:38;;;;;;;24.63;13.27;;;;;;;2.19;100.00;96781.88;4926724;28;20897;-71
2023/12/22 16:50:06;;;;;;;27.43;14.37;;;;;;;2.21;100.00;96785.97;4936052;28;20070;-73
2023/12/22 16:52:34;;;;;;;24.53;12.50;;;;;;;2.26;100.00;96788.84;4933673;28;20241;-71
2023/12/22 16:55:04;;;;;;;23.53;12.67;;;;;;;2.34;100.00;96780.13;4889585;28;20050;-71
2023/12/22 16:57:39;;;;;;;22.33;12.00;;;;;;;2.28;100.00;96776.41;4924269;28;20396;-70
2023/12/22 17:00:09;;;;;;;21.25;11.48;;;;;;;2.36;100.00;96770.28;4967639;28;20136;-75
2023/12/22 17:02:38;;;;;;;;;;;;;;;2.40;100.00;96785.47;4947451;28;20050;-69
2023/12/22 17:05:08;;;;;;;21.73;12.23;;;;;;;2.29;100.00;96774.59;4935601;28;20372;-70
2023/12/22 17:07:43;;;;;;;25.73;13.13;;;;;;;2.32;100.00;96776.88;4945706;28;20054;-67
2023/12/22 17:10:10;;;;;;;26.15;12.13;;;;;;;2.29;100.00;96777.22;4953631;28;20058;-66
2023/12/22 17:12:44;;;;;;;24.97;12.67;;;;;;;2.23;100.00;96768.25;4913432;28;20145;-68
2023/12/22 17:15:10;;;;;;;20.20;11.73;;;;;;;2.28;100.00;96776.41;4936436;28;20050;-70
2023/12/22 17:17:37;;;;;;;25.10;12.57;;;;;;;2.33;100.00;96770.63;4937618;28;20610;-70
2023/12/22 17:20:11;;;;;;;22.23;11.83;;;;;;;2.44;100.00;96773.66;4932437;28;20046;-69
2023/12/22 17:22:38;;;;;;;25.63;13.32;;;;;;;2.52;100.00;96759.66;4952653;28;20128;-70
2023/12/22 17:25:04;;;;;;;21.80;12.37;;;;;;;2.51;100.00;96771.94;4917466;28;20382;-72
2023/12/22 17:27:35;;;;;;;23.53;12.80;;;;;;;2.62;100.00;96763.66;4949867;28;20092;-68
2023/12/22 17:30:01;;;;;;;24.27;12.77;;;;;;;2.66;100.00;96751.03;4948279;28;20058;-68
2023/12/22 17:32:31;;;;;;;26.33;12.27;;;;;;;2.69;100.00;96754.09;4987485;28;20099;-66
2023/12/22 17:34:58;;;;;;;21.43;11.53;;;;;;;2.81;100.00;96752.66;4968828;28;21350;-66
2023/12/22 17:37:24;;;;;;;20.77;11.93;;;;;;;2.81;100.00;96744.00;4959976;28;20049;-68
2023/12/22 17:39:51;;;;;;;19.40;12.10;;;;;;;2.83;100.00;96744.63;4906501;28;20886;-70
2023/12/22 17:42:18;;;;;;;22.07;12.57;;;;;;;2.83;100.00;96747.25;4891041;28;20089;-68
2023/12/22 17:44:45;;;;;;;27.48;15.50;;;;;;;2.73;100.00;96734.41;4880432;29;20680;-71
2023/12/22 17:47:12;;;;;;;28.47;14.37;;;;;;;2.82;100.00;96740.38;4843877;29;20049;-69
2023/12/22 17:49:41;;;;;;;26.95;12.90;;;;;;;2.82;100.00;96722.84;4812980;29;20045;-69
2023/12/22 17:52:07;;;;;;;25.40;11.80;;;;;;;2.91;100.00;96721.75;4816583;29;20052;-71
2023/12/22 17:54:40;;;;;;;23.38;13.07;;;;;;;2.95;100.00;96723.00;4864442;29;20047;-69
2023/12/22 17:57:08;;;;;;;26.27;14.15;;;;;;;2.86;100.00;96724.09;4863363;29;20048;-71
2023/12/22 17:59:40;;;;;;;24.08;12.48;;;;;;;2.97;100.00;96720.19;4895681;29;20047;-67
2023/12/22 18:02:15;;;;;;;27.17;14.63;;;;;;;2.91;100.00;96708.66;4913128;29;20555;-68
2023/12/22 18:04:42;;;;;;;24.23;13.10;;;;;;;2.90;100.00;96709.66;4913244;29;20051;-68
2023/12/22 18:07:14;;;;;;;26.20;14.13;;;;;;;2.94;100.00;96703.03;4903494;29;20062;-70
2023/12/22 18:09:41;;;;;;;35.90;14.60;;;;;;;2.94;100.00;96692.56;4879619;29;20115;-68
2023/12/22 18:12:08;;;;;;;24.13;13.33;;;;;;;2.95;100.00;96696.00;4899265;28;20059;-67
2023/12/22 18:14:34;;;;;;;23.37;13.67;;;;;;;2.98;100.00;96690.41;4901548;28;20050;-68
2023/12/22 18:17:04;;;;;;;28.80;14.80;;;;;;;2.91;100.00;96685.06;4949354;28;20096;-67
2023/12/22 18:19:43;;;;;;;27.47;14.50;;;;;;;2.94;100.00;96668.97;4940601;28;20168;-68
2023/12/22 18:22:18;;;;;;;29.17;14.88;;;;;;;2.97;100.00;96679.09;4904369;28;20166;-69
2023/12/22 18:24:56;;;;;;;26.43;14.13;;;;;;;2.94;100.00;96663.72;4928116;28;20078;-70
2023/12/22 18:31:00;;;;;;;31.97;15.60;;;;;;;2.90;100.00;96672.16;4872496;29;20155;-68
2023/12/22 18:33:27;;;;;;;30.23;14.00;;;;;;;3.04;100.00;96661.66;4861300;29;20098;-72
2023/12/22 18:36:00;;;;;;;29.17;14.07;;;;;;;3.14;100.00;96664.78;4872390;29;20047;-74
2023/12/22 18:38:26;;;;;;;26.70;13.70;;;;;;;3.05;100.00;96652.78;4873156;29;20048;-72
2023/12/22 18:40:55;;;;;;;28.33;14.43;;;;;;;3.16;100.00;96657.56;4881927;29;20059;-72
2023/12/22 18:43:21;;;;;;;26.83;13.70;;;;;;;3.15;100.00;96665.59;4869993;29;20044;-72
2023/12/22 18:45:47;;;;;;;29.55;13.68;;;;;;;3.15;100.00;96650.66;4885701;29;20107;-72
2023/12/22 18:48:14;;;;;;;34.17;15.65;;;;;;;3.13;100.00;96657.94;4912324;28;20047;-73
2023/12/22 18:50:46;;;;;;;28.73;14.80;;;;;;;3.13;100.00;96654.47;4926197;28;20054;-74
2023/12/22 18:53:13;;;;;;;29.23;16.33;;;;;;;3.14;100.00;96641.19;4910460;29;20183;-72
2023/12/22 18:55:42;;;;;;;30.27;15.00;;;;;;;3.18;100.00;96639.81;4885245;29;20498;-73
2023/12/22 18:58:18;;;;;;;28.42;14.38;;;;;;;3.17;100.00;96635.56;4865007;29;20056;-72
2023/12/22 19:00:46;;;;;;;28.60;14.73;;;;;;;3.07;100.00;96637.69;4853471;29;20045;-76
2023/12/22 19:03:12;;;;;;;28.77;15.02;;;;;;;3.10;100.00;96647.81;4873536;29;20092;-72
2023/12/22 19:05:38;;;;;;;28.75;14.82;;;;;;;3.09;100.00;96632.25;4871621;29;20511;-71
2023/12/22 19:08:04;;;;;;;25.95;13.32;;;;;;;3.13;100.00;96636.94;4854215;29;20407;-72
2023/12/22 19:10:30;;;;;;;27.10;14.75;;;;;;;3.18;100.00;96628.53;4867928;29;20056;-74
2023/12/22 19:12:59;;;;;;;26.45;14.23;;;;;;;3.24;100.00;96618.09;4875152;29;20115;-73
2023/12/22 19:15:27;;;;;;;23.67;13.48;;;;;;;3.25;100.00;96624.16;4862968;29;20563;-73
2023/12/22 19:17:54;;;;;;;26.88;14.35;;;;;;;3.24;100.00;96618.09;4882071;29;20072;-71
2023/12/22 19:20:22;;;;;;;20.75;13.00;;;;;;;3.32;100.00;96633.72;4905026;29;20052;-73
2023/12/22 19:22:49;;;;;;;26.13;14.13;;;;;;;3.27;100.00;96625.63;4891008;29;20057;-71
2023/12/22 19:25:15;;;;;;;30.27;15.32;;;;;;;3.19;100.00;96624.91;4952670;28;20061;-72
2023/12/22 19:27:44;;;;;;;30.13;15.85;;;;;;;3.16;100.00;96620.03;4945126;28;20046;-72
2023/12/22 19:30:11;;;;;;;28.60;15.05;;;;;;;3.16;100.00;96622.66;4913893;28;20065;-74
2023/12/22 19:32:41;;;;;;;29.63;15.35;;;;;;;3.08;100.00;96613.09;4927586;28;20053;-72
2023/12/22 19:35:09;;;;;;;31.60;16.30;;;;;;;3.11;100.00;96615.34;4925760;28;20053;-72
2023/12/22 19:37:35;;;;;;;27.20;15.00;;;;;;;3.18;100.00;96615.41;4921595;28;20499;-72
2023/12/22 19:40:02;;;;;;;27.55;15.00;;;;;;;3.25;100.00;96618.91;4934329;28;20134;-72
2023/12/22 19:42:32;;;;;;;27.83;15.25;;;;;;;3.31;100.00;96605.88;4930938;28;20146;-73
2023/12/22 19:44:58;;;;;;;30.40;16.15;;;;;;;3.23;100.00;96603.38;4933466;28;20038;-74
2023/12/22 19:47:24;;;;;;;26.58;14.50;;;;;;;3.35;100.00;96608.94;4926264;29;20383;-72
2023/12/22 19:49:50;;;;;;;30.15;15.90;;;;;;;3.26;100.00;96608.22;4950498;28;20048;-72
2023/12/22 19:52:16;;;;;;;33.08;17.95;;;;;;;3.23;100.00;96600.75;4915035;29;20078;-73
2023/12/22 19:55:07;;;;;;;32.60;16.40;;;;;;;3.29;100.00;96599.19;4917269;29;20390;-73
2023/12/22 19:57:33;;;;;;;28.38;14.63;;;;;;;3.33;100.00;96596.03;4920964;28;20398;-74
2023/12/22 20:00:00;;;;;;;30.85;15.55;;;;;;;3.24;100.00;96604.97;4954590;28;20113;-74
2023/12/22 20:02:26;;;;;;;32.25;16.55;;;;;;;3.20;100.00;96595.06;4954960;28;20518;-74
2023/12/22 20:04:53;;;;;;;32.92;15.63;;;;;;;3.29;100.00;96597.38;4955010;28;20050;-75
2023/12/22 20:07:19;;;;;;;34.10;16.80;;;;;;;3.26;100.00;96605.63;4923120;28;20089;-74
2023/12/22 20:09:47;;;;;;;33.08;17.05;;;;;;;3.21;100.00;96594.88;4939132;28;20066;-75
2023/12/22 20:12:13;;;;;;;38.95;19.10;;;;;;;3.24;100.00;96597.13;4954873;28;20050;-76
2023/12/22 20:14:39;;;;;;;33.88;18.33;;;;;;;3.29;100.00;96596.59;4938864;28;20046;-75
2023/12/22 20:17:07;;;;;;;38.38;19.08;;;;;;;3.22;100.00;96588.63;4954821;28;20486;-76
2023/12/22 20:19:32;;;;;;;35.00;18.92;;;;;;;3.24;100.00;96589.25;4938884;28;20234;-73
2023/12/22 20:22:00;;;;;;;35.63;18.23;;;;;;;3.28;100.00;96584.44;4971130;28;20145;-77
2023/12/22 20:24:26;;;;;;;35.33;19.10;;;;;;;3.30;100.00;96588.53;4954916;28;20477;-76
2023/12/22 20:26:54;;;;;;;33.10;19.08;;;;;;;3.19;100.00;96590.81;4939365;28;20057;-76
2023/12/22 20:29:20;;;;;;;31.15;16.98;;;;;;;3.19;100.00;96583.78;4967616;28;20046;-76
2023/12/22 20:31:45;;;;;;;31.58;17.45;;;;;;;3.19;100.00;96572.47;4969743;28;20397;-77
2023/12/22 20:34:11;;;;;;;32.28;16.30;;;;;;;3.24;100.00;96570.88;4968784;28;20053;-76
2023/12/22 20:36:40;;;;;;;28.33;15.02;;;;;;;3.28;100.00;96576.59;4965575;28;20172;-76
2023/12/22 20:39:08;;;;;;;32.83;17.77;;;;;;;3.22;100.00;96567.66;4964821;28;20127;-77
2023/12/22 20:41:35;;;;;;;27.60;16.05;;;;;;;3.12;100.00;96561.13;4980396;28;20068;-76
2023/12/22 20:44:03;;;;;;;27.98;15.27;;;;;;;3.32;100.00;96565.53;4995169;28;20057;-77
2023/12/22 20:46:28;;;;;;;29.60;14.90;;;;;;;3.31;100.00;96573.59;5021338;28;20087;-77
2023/12/22 20:48:55;;;;;;;25.05;13.93;;;;;;;3.31;100.00;96571.78;5004457;28;20475;-76
2023/12/22 20:51:30;;;;;;;26.50;13.85;;;;;;;3.36;100.00;96566.81;5020819;28;20356;-76
2023/12/22 20:53:56;;;;;;;23.13;13.38;;;;;;;3.29;100.00;96565.91;5020990;28;20048;-77
2023/12/22 20:56:27;;;;;;;23.38;13.93;;;;;;;3.28;100.00;96564.28;5021056;28;20510;-77
2023/12/22 20:58:53;;;;;;;26.30;15.40;;;;;;;3.25;100.00;96571.72;5037300;28;20053;-76
2023/12/22 21:01:19;;;;;;;24.13;14.00;;;;;;;3.37;100.00;96549.22;5012750;28;20590;-75
2023/12/22 21:03:45;;;;;;;22.17;13.35;;;;;;;3.41;100.00;96548.66;4980154;28;20149;-76
2023/12/22 21:06:11;;;;;;;27.90;14.95;;;;;;;3.32;100.00;96549.78;4948195;28;20462;-75
2023/12/22 21:08:39;;;;;;;28.58;15.68;;;;;;;3.24;100.00;96557.78;4948863;28;20069;-75
2023/12/22 21:11:10;;;;;;;29.63;16.00;;;;;;;3.29;100.00;96572.97;4980568;28;20064;-76
2023/12/22 21:13:37;;;;;;;24.42;14.70;;;;;;;3.25;100.00;96548.94;4980980;28;20137;-75
2023/12/22 21:16:09;;;;;;;27.40;15.48;;;;;;;3.26;100.00;96553.16;5001737;28;20061;-76
2023/12/22 21:18:36;;;;;;;24.40;14.43;;;;;;;3.31;100.00;96545.56;4971239;28;20049;-76
2023/12/22 21:21:05;;;;;;;26.23;15.00;;;;;;;3.21;100.00;96549.50;5002435;28;20096;-76
2023/12/22 21:23:31;;;;;;;29.00;16.07;;;;;;;3.13;100.00;96552.25;4965105;28;20136;-77
2023/12/22 21:26:03;;;;;;;25.98;15.02;;;;;;;3.22;100.00;96546.69;4948473;28;20475;-75
2023/12/22 21:28:33;;;;;;;29.42;16.73;;;;;;;3.14;100.00;96548.59;4980158;28;20136;-76
2023/12/22 21:31:01;;;;;;;24.67;15.43;;;;;;;3.13;100.00;96555.69;4957206;28;20042;-76
2023/12/22 21:33:31;;;;;;;25.23;14.07;;;;;;;3.23;100.00;96544.84;4996480;28;20050;-75
2023/12/22 21:35:57;;;;;;;32.42;16.73;;;;;;;3.23;100.00;96540.44;4979834;28;20046;-75
2023/12/22 21:38:23;;;;;;;27.20;14.90;;;;;;;3.24;100.00;96547.28;4979550;28;20057;-75
2023/12/22 21:40:50;;;;;;;27.92;16.23;;;;;;;3.20;100.00;96546.06;4922536;29;20087;-76
2023/12/22 21:43:16;;;;;;;21.00;13.93;;;;;;;3.25;100.00;96538.44;4890415;29;20086;-73
2023/12/22 21:45:42;;;;;;;26.08;15.35;;;;;;;3.22;100.00;96540.63;4890671;29;20094;-76
2023/12/22 21:48:11;;;;;;;30.70;17.60;;;;;;;3.22;100.00;96540.63;4921901;29;20145;-74
2023/12/22 21:50:37;;;;;;;22.60;14.10;;;;;;;3.16;100.00;96529.09;4922141;29;20055;-75
2023/12/22 21:53:03;;;;;;;24.98;14.63;;;;;;;3.21;100.00;96526.69;4906258;29;20155;-76
2023/12/22 21:55:30;;;;;;;25.85;16.02;;;;;;;3.19;100.00;96535.75;4905993;29;20059;-76
2023/12/22 21:57:56;;;;;;;24.40;15.63;;;;;;;3.15;100.00;96524.03;4922105;29;20042;-75
2023/12/22 22:00:22;;;;;;;22.98;14.30;;;;;;;3.14;100.00;96531.06;4921622;29;20051;-76
2023/12/22 22:02:48;;;;;;;24.23;15.40;;;;;;;3.20;100.00;96530.31;4921716;29;20079;-76
2023/12/22 22:05:15;;;;;;;24.30;14.47;;;;;;;3.25;100.00;96521.91;4880653;29;20056;-76
2023/12/22 22:07:41;;;;;;;25.80;14.43;;;;;;;3.28;100.00;96529.38;4896329;29;20044;-76
2023/12/22 22:10:08;;;;;;;24.98;15.48;;;;;;;3.24;100.00;96502.72;4881039;29;20063;-77
2023/12/22 22:12:33;;;;;;;25.07;14.73;;;;;;;3.35;100.00;96531.06;4880359;29;20061;-78
2023/12/22 22:14:59;;;;;;;26.67;14.80;;;;;;;3.36;100.00;96531.88;4902652;29;20051;-78
2023/12/22 22:17:25;;;;;;;24.58;14.50;;;;;;;3.31;100.00;96531.63;4918316;29;20050;-77
2023/12/22 22:19:51;;;;;;;22.60;14.15;;;;;;;3.34;100.00;96526.81;4918053;29;20055;-76
2023/12/22 22:22:19;;;;;;;26.67;14.47;;;;;;;3.34;100.00;96532.06;4922849;28;20059;-76
2023/12/22 22:24:46;;;;;;;24.05;14.55;;;;;;;3.34;100.00;96526.00;4940374;28;20054;-76
2023/12/22 22:27:12;;;;;;;27.38;15.75;;;;;;;3.29;100.00;96516.09;4958079;28;20142;-76
2023/12/22 22:29:41;;;;;;;23.20;14.07;;;;;;;3.42;100.00;96510.16;4942692;28;20154;-77
2023/12/22 22:32:06;;;;;;;24.77;14.95;;;;;;;3.40;100.00;96510.34;4927312;28;20072;-76
2023/12/22 22:34:34;;;;;;;23.13;14.68;;;;;;;3.46;100.00;96514.81;4925489;28;20057;-77
2023/12/22 22:37:00;;;;;;;22.63;13.32;;;;;;;3.48;100.00;96499.72;4976174;28;20041;-77
2023/12/22 22:39:27;;;;;;;24.42;14.23;;;;;;;3.56;100.00;96497.94;5001363;28;20152;-77
2023/12/22 22:41:56;;;;;;;25.48;15.77;;;;;;;3.41;100.00;96509.31;5001399;28;20041;-76
2023/12/22 22:44:22;;;;;;;28.52;15.77;;;;;;;3.45;100.00;96512.38;5001415;28;20080;-77
2023/12/22 22:46:48;;;;;;;25.80;15.80;;;;;;;3.52;100.00;96510.66;5001210;28;20086;-77
2023/12/22 22:49:14;;;;;;;26.98;15.82;;;;;;;3.49;100.00;96495.25;4997943;28;20050;-77
2023/12/22 22:51:42;;;;;;;26.27;15.45;;;;;;;3.62;100.00;96505.03;4982241;28;20053;-76
2023/12/22 22:54:08;;;;;;;29.90;17.30;;;;;;;3.54;100.00;96497.34;5003591;28;20127;-75
2023/12/22 22:56:37;;;;;;;26.63;14.05;;;;;;;3.80;100.00;96489.66;5033073;28;20045;-75
2023/12/22 22:59:03;;;;;;;24.42;14.85;;;;;;;3.76;100.00;96512.00;4965445;28;20547;-75
2023/12/22 23:01:30;;;;;;;28.52;16.83;;;;;;;3.62;100.00;96500.63;4947214;28;20100;-75
2023/12/22 23:03:56;;;;;;;26.52;14.82;;;;;;;3.68;100.00;96491.16;4952480;28;20114;-75
2023/12/22 23:06:27;;;;;;;27.50;17.23;;;;;;;3.70;100.00;96504.91;4920542;29;20079;-75
2023/12/22 23:09:04;;;;;;;25.75;16.02;;;;;;;3.76;100.00;96491.00;4936244;29;20082;-75
2023/12/22 23:11:29;;;;;;;27.02;16.23;;;;;;;3.64;100.00;96498.63;4920087;29;20070;-74
2023/12/22 23:13:55;;;;;;;33.53;17.75;;;;;;;3.62;100.00;96491.94;4936092;29;20470;-74
2023/12/22 23:16:21;;;;;;;26.70;16.40;;;;;;;3.61;100.00;96490.31;4920622;29;20035;-76
2023/12/22 23:18:47;;;;;;;27.33;16.05;;;;;;;3.62;100.00;96490.13;4936374;29;20497;-75
2023/12/22 23:21:13;;;;;;;29.75;17.27;;;;;;;3.61;100.00;96472.78;4970676;28;20551;-75
2023/12/22 23:23:39;;;;;;;29.52;17.05;;;;;;;3.61;100.00;96478.00;4924425;28;20090;-77
2023/12/22 23:26:05;;;;;;;27.37;16.93;;;;;;;3.61;100.00;96474.56;4939497;28;20093;-77
2023/12/22 23:28:30;;;;;;;34.80;19.40;;;;;;;3.64;100.00;96463.69;4939511;28;20152;-76
2023/12/22 23:30:57;;;;;;;31.17;18.55;;;;;;;3.68;100.00;96473.59;4957458;28;20109;-76
2023/12/22 23:33:25;;;;;;;28.88;18.05;;;;;;;3.64;100.00;96484.69;4962091;28;20632;-76
2023/12/22 23:35:51;;;;;;;27.17;16.55;;;;;;;3.70;100.00;96457.69;5011336;28;20056;-77
2023/12/22 23:38:18;;;;;;;28.25;17.17;;;;;;;3.65;100.00;96462.69;5034537;28;20083;-76
2023/12/22 23:40:43;;;;;;;35.03;19.90;;;;;;;3.51;100.00;96472.28;5001814;28;20072;-76
2023/12/22 23:43:09;;;;;;;29.73;17.25;;;;;;;3.63;100.00;96460.25;5017892;28;20102;-78
2023/12/22 23:45:35;;;;;;;31.00;17.92;;;;;;;3.55;100.00;96449.09;5016828;28;20053;-77
2023/12/22 23:48:05;;;;;;;32.85;19.73;;;;;;;3.54;100.00;96465.84;4989928;28;20052;-77
2023/12/22 23:50:34;;;;;;;30.05;17.25;;;;;;;3.59;100.00;96458.19;5000691;28;20049;-78
2023/12/22 23:53:02;;;;;;;28.95;17.80;;;;;;;3.66;100.00;96448.59;4984593;28;20041;-78
2023/12/22 23:55:31;;;;;;;26.75;17.27;;;;;;;3.66;100.00;96470.34;5000972;28;20047;-76
2023/12/22 23:57:58;;;;;;;29.27;16.77;;;;;;;3.71;100.00;96448.78;4985656;28;20045;-78
